Time;durP1;ratioP1;P1;durP2;ratioP2;P2;SDS_P1;SDS_P2;PMS_P1;PMS_P2;Temp;Humidity;BMP_temperature;BMP_pressure;BME280_temperature;BME280_humidity;BME280_pressure;Samples;Min_cycle;Max_cycle;Signal;HPM_P1;HPM_P2
2023/09/25 00:01:30;;;;;;;4.38;1.48;;;;;;;;;;5080354;28;20102;-63
2023/09/25 00:03:56;;;;;;;5.05;1.48;;;;;;;;;;5081231;28;20044;-63
2023/09/25 00:06:22;;;;;;;3.78;1.25;;;;;;;;;;5080565;28;20055;-63
2023/09/25 00:08:48;;;;;;;2.70;1.40;;;;;;;;;;5061364;28;20066;-63
2023/09/25 00:11:14;;;;;;;5.32;1.35;;;;;;;;;;5081764;28;20036;-63
2023/09/25 00:13:40;;;;;;;4.35;1.45;;;;;;;;;;5080241;28;21356;-63
2023/09/25 00:16:11;;;;;;;4.55;1.58;;;;;;;;;;5081140;28;20050;-63
2023/09/25 00:18:38;;;;;;;6.60;1.70;;;;;;;;;;5081558;28;20028;-63
2023/09/25 00:21:04;;;;;;;3.50;1.30;;;;;;;;;;5081031;28;20074;-63
2023/09/25 00:23:30;;;;;;;3.63;1.38;;;;;;;;;;5080652;28;20040;-63
2023/09/25 00:26:03;;;;;;;6.78;1.67;;;;;;;;;;5080306;28;20024;-63
2023/09/25 00:28:29;;;;;;;4.35;1.55;;;;;;;;;;5080321;27;20028;-63
2023/09/25 00:30:55;;;;;;;10.68;1.73;;;;;;;;;;5081008;28;20686;-63
2023/09/25 00:33:21;;;;;;;4.82;1.90;;;;;;;;;;5079650;28;20028;-63
2023/09/25 00:35:47;;;;;;;3.10;1.20;;;;;;;;;;5080250;28;20084;-63
2023/09/25 00:38:14;;;;;;;5.72;1.95;;;;;;;;;;5081501;28;20043;-63
2023/09/25 00:40:40;;;;;;;2.15;1.10;;;;;;;;;;5080020;28;20046;-63
2023/09/25 00:43:06;;;;;;;3.60;1.63;;;;;;;;;;5080678;28;20111;-63
2023/09/25 00:45:36;;;;;;;5.20;1.60;;;;;;;;;;5080213;28;20184;-63
2023/09/25 00:48:03;;;;;;;3.80;1.70;;;;;;;;;;5080178;27;20548;-63
2023/09/25 00:50:32;;;;;;;4.40;1.58;;;;;;;;;;5079899;28;20800;-63
2023/09/25 00:53:06;;;;;;;3.70;1.60;;;;;;;;;;5080655;28;20062;-63
2023/09/25 00:55:34;;;;;;;2.95;1.30;;;;;;;;;;5079782;28;20024;-63
2023/09/25 00:58:01;;;;;;;6.20;1.80;;;;;;;;;;5080511;28;20043;-63
2023/09/25 01:00:27;;;;;;;4.25;1.38;;;;;;;;;;5078709;28;20040;-63
2023/09/25 01:02:53;;;;;;;3.42;1.40;;;;;;;;;;5079640;28;20036;-63
2023/09/25 01:05:19;;;;;;;3.33;1.50;;;;;;;;;;5080195;28;20071;-63
2023/09/25 01:07:45;;;;;;;4.38;1.60;;;;;;;;;;5078407;28;21800;-63
2023/09/25 01:10:19;;;;;;;7.10;2.08;;;;;;;;;;5080089;28;20032;-63
2023/09/25 01:12:46;;;;;;;4.72;1.67;;;;;;;;;;5080092;28;20036;-63
2023/09/25 01:15:13;;;;;;;5.70;1.83;;;;;;;;;;5079541;28;20335;-63
2023/09/25 01:17:40;;;;;;;8.25;1.75;;;;;;;;;;5080120;28;20028;-63
2023/09/25 01:20:17;;;;;;;5.70;1.77;;;;;;;;;;5080056;28;20035;-63
2023/09/25 01:22:49;;;;;;;3.75;1.60;;;;;;;;;;5079638;28;20055;-63
2023/09/25 01:25:16;;;;;;;5.90;1.60;;;;;;;;;;5078674;28;20031;-63
2023/09/25 01:27:42;;;;;;;4.38;1.73;;;;;;;;;;5080080;28;20023;-63
2023/09/25 01:30:09;;;;;;;5.45;1.88;;;;;;;;;;5079510;28;20043;-63
2023/09/25 01:32:39;;;;;;;4.45;2.00;;;;;;;;;;5079467;28;20353;-63
2023/09/25 01:35:26;;;;;;;4.55;2.00;;;;;;;;;;5079172;28;20120;-63
2023/09/25 01:37:59;;;;;;;4.25;1.63;;;;;;;;;;5079230;28;20085;-63
2023/09/25 01:40:25;;;;;;;3.67;1.50;;;;;;;;;;5083719;27;20597;-63
2023/09/25 01:42:51;;;;;;;4.38;1.70;;;;;;;;;;5083993;27;20039;-63
2023/09/25 01:45:19;;;;;;;4.10;1.92;;;;;;;;;;5083736;28;20042;-63
2023/09/25 01:47:50;;;;;;;5.13;2.10;;;;;;;;;;5082887;28;20059;-63
2023/09/25 01:50:16;;;;;;;5.13;1.75;;;;;;;;;;5084024;28;20428;-63
2023/09/25 01:52:42;;;;;;;6.53;2.10;;;;;;;;;;5083698;27;20931;-63
2023/09/25 01:55:09;;;;;;;4.95;1.80;;;;;;;;;;5082730;27;20043;-63
2023/09/25 01:57:35;;;;;;;5.57;1.83;;;;;;;;;;5084095;28;20034;-63
2023/09/25 02:00:07;;;;;;;5.07;1.80;;;;;;;;;;5062677;28;20067;-63
2023/09/25 02:02:33;;;;;;;4.65;1.80;;;;;;;;;;5083185;27;20057;-63
2023/09/25 02:04:59;;;;;;;5.78;2.25;;;;;;;;;;5083560;28;20090;-63
2023/09/25 02:07:25;;;;;;;3.65;1.70;;;;;;;;;;5083595;27;20039;-63
2023/09/25 02:09:51;;;;;;;3.65;1.70;;;;;;;;;;5083389;28;20705;-63
2023/09/25 02:12:17;;;;;;;5.72;1.63;;;;;;;;;;5083534;28;20043;-63
2023/09/25 02:14:44;;;;;;;8.00;2.10;;;;;;;;;;5083456;28;20063;-63
2023/09/25 02:17:10;;;;;;;5.47;2.13;;;;;;;;;;5083447;28;20032;-63
2023/09/25 02:19:36;;;;;;;7.63;2.17;;;;;;;;;;5083046;28;20854;-63
2023/09/25 02:22:06;;;;;;;5.70;2.00;;;;;;;;;;5083011;28;20032;-63
2023/09/25 02:24:33;;;;;;;5.43;1.85;;;;;;;;;;5082395;28;20123;-63
2023/09/25 02:26:59;;;;;;;5.00;1.80;;;;;;;;;;5082751;28;20532;-62
2023/09/25 02:29:25;;;;;;;6.97;2.20;;;;;;;;;;5082916;28;20974;-63
2023/09/25 02:31:51;;;;;;;4.88;1.77;;;;;;;;;;5083414;28;20036;-63
2023/09/25 02:34:17;;;;;;;4.82;2.15;;;;;;;;;;5082648;28;20040;-63
2023/09/25 02:36:43;;;;;;;6.30;2.15;;;;;;;;;;5082432;28;20032;-62
2023/09/25 02:39:10;;;;;;;5.70;2.30;;;;;;;;;;5082954;27;20035;-63
2023/09/25 02:41:36;;;;;;;7.63;2.20;;;;;;;;;;5081478;28;21051;-63
2023/09/25 02:44:02;;;;;;;6.20;2.10;;;;;;;;;;5081313;28;20120;-63
2023/09/25 02:46:28;;;;;;;4.18;2.10;;;;;;;;;;5082981;28;20035;-63
2023/09/25 02:48:54;;;;;;;4.78;2.17;;;;;;;;;;5062870;28;20023;-63
2023/09/25 02:51:20;;;;;;;4.65;1.95;;;;;;;;;;5081860;28;20032;-63
2023/09/25 02:53:46;;;;;;;4.60;2.25;;;;;;;;;;5062517;27;20055;-63
2023/09/25 02:56:12;;;;;;;5.43;2.05;;;;;;;;;;5081227;27;20085;-62
2023/09/25 02:58:39;;;;;;;6.63;2.00;;;;;;;;;;5081320;27;20028;-63
2023/09/25 03:01:05;;;;;;;4.55;1.85;;;;;;;;;;5082179;28;20036;-63
2023/09/25 03:03:31;;;;;;;8.15;2.20;;;;;;;;;;5081305;28;20031;-63
2023/09/25 03:05:57;;;;;;;5.85;1.88;;;;;;;;;;5081347;28;20040;-63
2023/09/25 03:08:23;;;;;;;6.38;2.30;;;;;;;;;;5082337;28;20035;-63
2023/09/25 03:10:49;;;;;;;5.78;2.75;;;;;;;;;;5081937;28;20073;-63
2023/09/25 03:13:15;;;;;;;5.10;2.25;;;;;;;;;;5081974;28;20083;-63
2023/09/25 03:15:41;;;;;;;4.57;1.92;;;;;;;;;;5082372;28;20790;-63
2023/09/25 03:18:07;;;;;;;8.63;2.17;;;;;;;;;;5082185;28;20446;-63
2023/09/25 03:20:33;;;;;;;5.25;1.67;;;;;;;;;;5082104;28;20032;-63
2023/09/25 03:22:59;;;;;;;5.70;1.98;;;;;;;;;;5082245;28;20047;-63
2023/09/25 03:25:25;;;;;;;5.90;2.10;;;;;;;;;;5081736;28;20031;-62
2023/09/25 03:27:51;;;;;;;5.57;2.53;;;;;;;;;;5081037;27;20088;-63
2023/09/25 03:30:17;;;;;;;5.07;2.10;;;;;;;;;;5080718;28;20060;-63
2023/09/25 03:32:44;;;;;;;5.25;2.20;;;;;;;;;;5081619;28;20059;-63
2023/09/25 03:35:10;;;;;;;4.70;2.17;;;;;;;;;;5081856;28;20028;-62
2023/09/25 03:37:36;;;;;;;4.18;1.73;;;;;;;;;;5080620;28;20028;-63
2023/09/25 03:40:10;;;;;;;7.05;2.17;;;;;;;;;;5081794;28;20051;-63
2023/09/25 03:42:36;;;;;;;6.60;1.98;;;;;;;;;;5082164;28;20069;-62
2023/09/25 03:45:02;;;;;;;7.78;2.40;;;;;;;;;;5080359;28;20036;-63
2023/09/25 03:47:28;;;;;;;5.35;2.20;;;;;;;;;;5082045;28;20119;-63
2023/09/25 03:49:55;;;;;;;5.45;2.00;;;;;;;;;;5081328;28;20608;-63
2023/09/25 03:52:21;;;;;;;4.88;2.00;;;;;;;;;;5081002;28;20045;-63
2023/09/25 03:54:47;;;;;;;5.47;2.22;;;;;;;;;;5080901;28;20948;-62
2023/09/25 03:57:13;;;;;;;4.63;1.88;;;;;;;;;;5081256;28;20458;-63
2023/09/25 03:59:39;;;;;;;5.32;2.38;;;;;;;;;;5080517;28;20040;-63
2023/09/25 04:02:05;;;;;;;5.03;2.15;;;;;;;;;;5080440;28;20028;-62
2023/09/25 04:04:31;;;;;;;5.43;2.17;;;;;;;;;;5080041;28;20031;-62
2023/09/25 04:06:58;;;;;;;3.95;2.10;;;;;;;;;;5081496;28;21790;-63
2023/09/25 04:09:24;;;;;;;4.35;2.17;;;;;;;;;;5080938;28;20032;-62
2023/09/25 04:11:50;;;;;;;6.40;2.42;;;;;;;;;;5081424;28;20078;-62
2023/09/25 04:14:17;;;;;;;7.57;2.53;;;;;;;;;;5081530;28;20028;-62
2023/09/25 04:16:43;;;;;;;6.80;2.33;;;;;;;;;;5080837;28;20067;-62
2023/09/25 04:19:09;;;;;;;5.13;2.20;;;;;;;;;;5079913;28;20042;-62
2023/09/25 04:21:35;;;;;;;5.05;2.20;;;;;;;;;;5081235;28;20028;-62
2023/09/25 04:24:01;;;;;;;4.88;2.40;;;;;;;;;;5080231;28;20032;-62
2023/09/25 04:26:27;;;;;;;5.18;2.40;;;;;;;;;;5061032;28;20047;-62
2023/09/25 04:28:53;;;;;;;5.82;2.40;;;;;;;;;;5080941;28;20149;-62
2023/09/25 04:31:20;;;;;;;4.85;2.20;;;;;;;;;;5078765;28;20164;-62
2023/09/25 04:33:46;;;;;;;4.53;2.08;;;;;;;;;;5063111;28;20662;-62
2023/09/25 04:36:15;;;;;;;6.32;2.90;;;;;;;;;;5079010;28;21052;-63
2023/09/25 04:38:41;;;;;;;5.38;2.00;;;;;;;;;;5079321;28;20651;-63
2023/09/25 04:41:07;;;;;;;4.47;2.38;;;;;;;;;;5080042;28;20480;-62
2023/09/25 04:43:33;;;;;;;6.65;2.22;;;;;;;;;;5079224;28;20499;-62
2023/09/25 04:46:00;;;;;;;6.35;2.50;;;;;;;;;;5080143;28;20095;-62
2023/09/25 04:48:29;;;;;;;7.63;2.38;;;;;;;;;;5080391;28;20031;-62
2023/09/25 04:50:57;;;;;;;5.90;2.10;;;;;;;;;;5061042;28;20036;-62
2023/09/25 04:53:24;;;;;;;5.78;2.22;;;;;;;;;;5070645;28;20032;-62
2023/09/25 04:55:50;;;;;;;5.22;2.40;;;;;;;;;;5080057;28;20023;-62
2023/09/25 04:58:16;;;;;;;4.32;2.42;;;;;;;;;;5079896;28;20028;-62
2023/09/25 05:00:44;;;;;;;6.22;2.28;;;;;;;;;;5080807;28;20043;-62
2023/09/25 05:03:10;;;;;;;3.67;2.05;;;;;;;;;;5079676;28;20034;-62
2023/09/25 05:05:36;;;;;;;5.00;2.42;;;;;;;;;;5079944;28;20040;-62
2023/09/25 05:08:02;;;;;;;5.45;2.55;;;;;;;;;;5079980;28;20038;-62
2023/09/25 05:10:29;;;;;;;3.95;2.35;;;;;;;;;;5079172;28;20350;-63
2023/09/25 05:12:56;;;;;;;5.28;2.15;;;;;;;;;;5081398;28;20127;-62
2023/09/25 05:15:23;;;;;;;4.78;2.40;;;;;;;;;;5083916;28;20052;-63
2023/09/25 05:17:49;;;;;;;5.55;2.63;;;;;;;;;;5084096;27;20024;-62
2023/09/25 05:20:19;;;;;;;5.72;2.08;;;;;;;;;;5083476;28;20077;-62
2023/09/25 05:22:50;;;;;;;4.65;2.42;;;;;;;;;;5083555;28;21746;-62
2023/09/25 05:25:16;;;;;;;7.47;3.20;;;;;;;;;;5079643;28;20547;-62
2023/09/25 05:27:45;;;;;;;4.85;2.10;;;;;;;;;;5083497;28;20133;-62
2023/09/25 05:30:12;;;;;;;7.30;2.60;;;;;;;;;;5082847;27;20032;-63
2023/09/25 05:32:39;;;;;;;5.10;2.33;;;;;;;;;;5082017;28;20028;-62
2023/09/25 05:35:05;;;;;;;5.82;2.40;;;;;;;;;;5081271;28;21071;-62
2023/09/25 05:37:33;;;;;;;6.53;2.63;;;;;;;;;;5081089;28;20035;-62
2023/09/25 05:39:59;;;;;;;6.43;2.30;;;;;;;;;;5082375;28;20023;-62
2023/09/25 05:42:25;;;;;;;5.15;2.13;;;;;;;;;;5081813;27;20572;-62
2023/09/25 05:44:51;;;;;;;5.80;2.25;;;;;;;;;;5081830;28;20430;-62
2023/09/25 05:47:17;;;;;;;5.70;2.55;;;;;;;;;;5083199;28;20028;-62
2023/09/25 05:49:43;;;;;;;4.45;2.08;;;;;;;;;;5080941;27;20074;-62
2023/09/25 05:52:10;;;;;;;7.00;2.70;;;;;;;;;;5081854;27;20039;-62
2023/09/25 05:54:36;;;;;;;5.57;2.20;;;;;;;;;;5082528;27;20024;-62
2023/09/25 05:57:05;;;;;;;5.13;2.38;;;;;;;;;;5082189;28;20031;-62
2023/09/25 05:59:31;;;;;;;9.27;2.40;;;;;;;;;;5081825;28;20040;-62
2023/09/25 06:01:57;;;;;;;5.05;2.50;;;;;;;;;;5082945;28;20036;-62
2023/09/25 06:04:23;;;;;;;5.85;2.40;;;;;;;;;;5082879;28;20035;-62
2023/09/25 06:06:49;;;;;;;11.05;2.40;;;;;;;;;;5082098;28;20493;-62
2023/09/25 06:09:15;;;;;;;5.90;2.50;;;;;;;;;;5082751;27;20388;-62
2023/09/25 06:11:42;;;;;;;6.28;2.72;;;;;;;;;;5082676;27;20050;-62
2023/09/25 06:14:11;;;;;;;6.68;2.47;;;;;;;;;;5082546;28;20028;-62
2023/09/25 06:16:39;;;;;;;6.90;2.40;;;;;;;;;;5082284;28;20417;-62
2023/09/25 06:19:05;;;;;;;6.72;2.65;;;;;;;;;;5080902;28;20056;-62
2023/09/25 06:21:31;;;;;;;6.10;2.10;;;;;;;;;;5082679;28;20027;-62
2023/09/25 06:23:57;;;;;;;8.77;2.80;;;;;;;;;;5081154;28;20060;-62
2023/09/25 06:26:27;;;;;;;4.30;2.03;;;;;;;;;;5062043;28;20059;-62
2023/09/25 06:28:53;;;;;;;4.15;2.08;;;;;;;;;;5082705;28;20062;-62
2023/09/25 06:31:19;;;;;;;4.70;2.33;;;;;;;;;;5081510;27;20051;-62
2023/09/25 06:33:45;;;;;;;5.40;1.77;;;;;;;;;;5082459;28;20439;-62
2023/09/25 06:36:11;;;;;;;4.97;2.35;;;;;;;;;;5082845;28;21795;-62
2023/09/25 06:38:37;;;;;;;4.93;1.95;;;;;;;;;;5082479;28;20040;-62
2023/09/25 06:41:03;;;;;;;4.88;2.10;;;;;;;;;;5061885;28;20075;-62
2023/09/25 06:43:29;;;;;;;6.15;2.33;;;;;;;;;;5077686;27;20383;-62
2023/09/25 06:45:56;;;;;;;5.43;1.95;;;;;;;;;;5075761;28;21456;-62
2023/09/25 06:48:22;;;;;;;3.47;1.63;;;;;;;;;;5074455;28;20027;-62
2023/09/25 06:50:48;;;;;;;6.13;2.60;;;;;;;;;;5074989;28;20038;-62
2023/09/25 06:53:14;;;;;;;5.07;2.40;;;;;;;;;;5055931;28;20032;-62
2023/09/25 06:55:40;;;;;;;4.85;2.20;;;;;;;;;;5074280;28;20990;-62
2023/09/25 06:58:07;;;;;;;5.05;2.28;;;;;;;;;;5074498;28;20115;-62
2023/09/25 07:00:33;;;;;;;4.65;2.28;;;;;;;;;;5074994;28;20470;-62
2023/09/25 07:02:59;;;;;;;5.70;2.40;;;;;;;;;;5075459;28;20081;-62
2023/09/25 07:05:28;;;;;;;4.25;2.17;;;;;;;;;;5075136;28;20031;-62
2023/09/25 07:07:56;;;;;;;5.78;2.10;;;;;;;;;;5074626;28;21142;-62
2023/09/25 07:10:22;;;;;;;8.15;2.35;;;;;;;;;;5074454;28;20150;-62
2023/09/25 07:12:48;;;;;;;6.50;1.95;;;;;;;;;;5074199;28;20047;-62
2023/09/25 07:15:14;;;;;;;5.55;2.15;;;;;;;;;;5074383;28;20062;-62
2023/09/25 07:17:40;;;;;;;4.22;2.15;;;;;;;;;;5055778;28;20641;-62
2023/09/25 07:20:06;;;;;;;4.05;1.80;;;;;;;;;;5074983;28;20032;-62
2023/09/25 07:22:33;;;;;;;4.78;2.05;;;;;;;;;;5074176;28;20039;-62
2023/09/25 07:24:59;;;;;;;4.22;1.70;;;;;;;;;;5074017;28;20088;-62
2023/09/25 07:27:27;;;;;;;4.63;1.92;;;;;;;;;;5074689;27;20507;-62
2023/09/25 07:29:54;;;;;;;6.90;2.40;;;;;;;;;;5073098;28;20031;-62
2023/09/25 07:32:20;;;;;;;5.97;2.10;;;;;;;;;;5074589;28;20183;-62
2023/09/25 07:34:46;;;;;;;7.63;2.08;;;;;;;;;;5074017;28;21332;-62
2023/09/25 07:37:12;;;;;;;6.28;2.03;;;;;;;;;;5073830;28;20276;-62
2023/09/25 07:39:40;;;;;;;3.95;1.70;;;;;;;;;;5073449;28;20292;-62
2023/09/25 07:42:09;;;;;;;3.65;1.67;;;;;;;;;;5073534;28;20035;-62
2023/09/25 07:44:35;;;;;;;5.50;1.70;;;;;;;;;;5072518;28;20032;-62
2023/09/25 07:47:06;;;;;;;6.82;2.35;;;;;;;;;;5073565;28;20032;-62
2023/09/25 07:49:38;;;;;;;5.32;1.92;;;;;;;;;;5074391;28;20032;-62
2023/09/25 07:52:14;;;;;;;5.70;2.00;;;;;;;;;;5072722;28;20034;-62
2023/09/25 07:54:41;;;;;;;4.55;2.03;;;;;;;;;;5073169;28;20028;-62
2023/09/25 07:57:08;;;;;;;4.43;1.83;;;;;;;;;;5073176;28;20176;-62
2023/09/25 07:59:34;;;;;;;6.03;2.08;;;;;;;;;;5072169;28;20040;-62
2023/09/25 08:02:01;;;;;;;4.32;1.77;;;;;;;;;;5071944;28;20035;-62
2023/09/25 08:04:27;;;;;;;3.95;1.73;;;;;;;;;;5073093;28;20857;-62
2023/09/25 08:06:53;;;;;;;5.68;2.00;;;;;;;;;;5073064;28;20044;-62
2023/09/25 08:09:20;;;;;;;4.55;2.20;;;;;;;;;;5072294;28;20035;-62
2023/09/25 08:11:46;;;;;;;9.48;2.38;;;;;;;;;;5072359;28;20065;-62
2023/09/25 08:14:12;;;;;;;5.10;1.88;;;;;;;;;;5071600;27;20089;-62
2023/09/25 08:16:39;;;;;;;3.75;1.85;;;;;;;;;;5072783;28;20069;-62
2023/09/25 08:19:05;;;;;;;4.43;1.90;;;;;;;;;;5072177;28;20110;-62
2023/09/25 08:21:31;;;;;;;4.70;1.80;;;;;;;;;;5064104;28;20050;-62
2023/09/25 08:23:57;;;;;;;6.03;2.17;;;;;;;;;;5065123;28;20710;-62
2023/09/25 08:26:23;;;;;;;5.88;2.03;;;;;;;;;;5065004;28;20116;-62
2023/09/25 08:28:50;;;;;;;4.90;1.90;;;;;;;;;;5063491;27;20042;-62
2023/09/25 08:31:16;;;;;;;4.50;2.20;;;;;;;;;;5064440;28;20103;-62
2023/09/25 08:33:43;;;;;;;5.30;2.10;;;;;;;;;;5063617;27;20028;-62
2023/09/25 08:36:12;;;;;;;3.60;1.50;;;;;;;;;;5064868;28;20067;-63
2023/09/25 08:38:38;;;;;;;4.65;1.83;;;;;;;;;;5064978;28;20028;-62
2023/09/25 08:41:04;;;;;;;5.38;2.10;;;;;;;;;;5064020;28;20038;-62
2023/09/25 08:43:30;;;;;;;5.50;2.10;;;;;;;;;;5062606;28;20054;-62
2023/09/25 08:45:57;;;;;;;5.05;1.98;;;;;;;;;;5065268;28;20452;-62
2023/09/25 08:48:24;;;;;;;3.42;1.70;;;;;;;;;;5064464;28;20036;-62
2023/09/25 08:50:50;;;;;;;5.70;2.10;;;;;;;;;;5065559;28;20085;-62
2023/09/25 08:53:17;;;;;;;5.78;2.33;;;;;;;;;;5065267;28;20035;-62
2023/09/25 08:55:43;;;;;;;5.00;2.03;;;;;;;;;;5065120;28;20024;-62
2023/09/25 08:58:10;;;;;;;5.85;1.98;;;;;;;;;;5065255;28;20189;-62
2023/09/25 09:00:36;;;;;;;6.90;2.25;;;;;;;;;;5065535;28;20751;-62
2023/09/25 09:03:02;;;;;;;4.32;1.70;;;;;;;;;;5064900;28;20483;-62
2023/09/25 09:05:28;;;;;;;6.00;1.83;;;;;;;;;;5064735;28;20034;-62
2023/09/25 09:07:59;;;;;;;5.93;1.73;;;;;;;;;;5064328;28;20066;-62
2023/09/25 09:10:33;;;;;;;3.25;1.60;;;;;;;;;;5065967;28;20039;-62
2023/09/25 09:12:59;;;;;;;4.43;1.85;;;;;;;;;;5065221;28;20040;-62
2023/09/25 09:15:29;;;;;;;3.70;1.70;;;;;;;;;;5065406;28;20016;-62
2023/09/25 09:17:56;;;;;;;4.38;1.77;;;;;;;;;;5065792;28;20140;-62
2023/09/25 09:20:23;;;;;;;7.18;2.17;;;;;;;;;;5064268;28;20060;-62
2023/09/25 09:22:52;;;;;;;8.20;2.00;;;;;;;;;;5064967;28;20069;-62
2023/09/25 09:25:21;;;;;;;6.65;2.03;;;;;;;;;;5064723;28;20082;-62
2023/09/25 09:27:47;;;;;;;4.95;1.73;;;;;;;;;;5064451;28;20362;-62
2023/09/25 09:30:24;;;;;;;5.10;2.10;;;;;;;;;;5051280;28;20386;-62
2023/09/25 09:32:50;;;;;;;5.60;2.20;;;;;;;;;;5062754;28;20028;-67
2023/09/25 09:35:25;;;;;;;3.95;1.60;;;;;;;;;;5063802;28;20071;-67
2023/09/25 09:37:55;;;;;;;4.78;1.90;;;;;;;;;;5062805;28;20066;-67
2023/09/25 09:40:21;;;;;;;6.15;2.47;;;;;;;;;;5063261;28;20581;-67
2023/09/25 09:42:50;;;;;;;4.30;1.73;;;;;;;;;;5064123;28;20051;-67
2023/09/25 09:45:16;;;;;;;5.03;2.03;;;;;;;;;;5065589;28;20032;-67
2023/09/25 09:47:43;;;;;;;5.68;2.40;;;;;;;;;;5065714;28;20511;-67
2023/09/25 09:50:10;;;;;;;5.13;1.73;;;;;;;;;;5065644;28;21425;-67
2023/09/25 09:52:38;;;;;;;5.80;2.17;;;;;;;;;;5066108;28;20035;-67
2023/09/25 09:55:05;;;;;;;5.07;1.90;;;;;;;;;;5065007;28;20235;-67
2023/09/25 09:57:31;;;;;;;3.35;1.48;;;;;;;;;;5064802;28;20111;-67
2023/09/25 09:59:58;;;;;;;6.03;1.65;;;;;;;;;;5066311;28;20082;-68
2023/09/25 10:02:24;;;;;;;3.63;1.55;;;;;;;;;;5069156;28;20418;-67
2023/09/25 10:04:50;;;;;;;5.38;2.00;;;;;;;;;;5068485;27;21495;-67
2023/09/25 10:07:17;;;;;;;6.53;1.80;;;;;;;;;;5068030;28;20066;-67
2023/09/25 10:10:06;;;;;;;5.72;1.98;;;;;;;;;;5068011;28;20092;-67
2023/09/25 10:12:39;;;;;;;3.78;1.70;;;;;;;;;;5056109;27;20048;-67
2023/09/25 10:15:06;;;;;;;5.30;2.05;;;;;;;;;;5068748;27;20074;-67
2023/09/25 10:17:41;;;;;;;5.47;1.75;;;;;;;;;;5068447;28;20822;-67
2023/09/25 10:20:27;;;;;;;4.30;1.60;;;;;;;;;;5068944;28;20063;-67
2023/09/25 10:22:53;;;;;;;4.60;1.50;;;;;;;;;;5068153;28;20023;-67
2023/09/25 10:25:20;;;;;;;3.65;1.45;;;;;;;;;;5067361;28;20039;-67
2023/09/25 10:27:46;;;;;;;6.72;2.10;;;;;;;;;;5067427;28;20040;-67
2023/09/25 10:30:14;;;;;;;6.07;1.50;;;;;;;;;;5068764;28;20039;-67
2023/09/25 10:32:50;;;;;;;4.88;1.58;;;;;;;;;;5067978;28;20415;-67
2023/09/25 10:35:35;;;;;;;6.40;1.75;;;;;;;;;;5068517;27;20487;-68
2023/09/25 10:38:11;;;;;;;7.40;2.00;;;;;;;;;;5067916;28;20050;-67
2023/09/25 10:40:37;;;;;;;6.55;1.63;;;;;;;;;;5067986;28;20032;-67
2023/09/25 10:43:04;;;;;;;5.78;1.83;;;;;;;;;;5066836;28;20118;-67
2023/09/25 10:45:31;;;;;;;6.60;2.13;;;;;;;;;;5068193;28;20035;-68
2023/09/25 10:47:57;;;;;;;4.72;1.65;;;;;;;;;;5048483;28;20683;-67
2023/09/25 10:50:23;;;;;;;4.07;1.48;;;;;;;;;;5068016;28;20047;-68
2023/09/25 10:52:49;;;;;;;4.50;1.73;;;;;;;;;;5067215;28;20040;-67
2023/09/25 10:55:15;;;;;;;3.60;1.50;;;;;;;;;;5067667;28;20035;-67
2023/09/25 10:57:42;;;;;;;5.68;1.63;;;;;;;;;;5067743;28;20040;-67
2023/09/25 11:00:14;;;;;;;5.28;1.67;;;;;;;;;;5066853;27;20048;-67
2023/09/25 11:02:40;;;;;;;5.82;1.90;;;;;;;;;;5066342;28;20053;-67
2023/09/25 11:05:07;;;;;;;4.93;1.80;;;;;;;;;;5067609;27;20035;-67
2023/09/25 11:07:38;;;;;;;5.35;1.50;;;;;;;;;;5067165;28;20414;-67
2023/09/25 11:10:04;;;;;;;4.93;1.45;;;;;;;;;;5067032;28;20064;-67
2023/09/25 11:12:31;;;;;;;5.30;1.70;;;;;;;;;;5066620;27;20036;-67
2023/09/25 11:14:57;;;;;;;5.43;1.90;;;;;;;;;;5066611;28;20063;-67
2023/09/25 11:17:24;;;;;;;4.72;1.50;;;;;;;;;;5066636;28;20036;-67
2023/09/25 11:19:52;;;;;;;4.95;1.85;;;;;;;;;;5066841;28;20028;-67
2023/09/25 11:22:21;;;;;;;5.50;1.80;;;;;;;;;;5066051;28;20097;-67
2023/09/25 11:24:56;;;;;;;5.18;1.55;;;;;;;;;;5067683;28;20031;-67
2023/09/25 11:27:22;;;;;;;6.28;1.83;;;;;;;;;;5066907;28;20110;-67
2023/09/25 11:29:49;;;;;;;3.95;1.50;;;;;;;;;;5067478;28;20043;-67
2023/09/25 11:32:16;;;;;;;3.80;1.40;;;;;;;;;;5066998;28;20428;-68
2023/09/25 11:34:43;;;;;;;5.00;1.70;;;;;;;;;;5067429;28;21052;-67
2023/09/25 11:37:18;;;;;;;4.07;1.50;;;;;;;;;;5066510;28;20039;-67
2023/09/25 11:39:44;;;;;;;5.15;2.05;;;;;;;;;;5066783;28;20027;-67
2023/09/25 11:42:10;;;;;;;3.90;1.73;;;;;;;;;;5067027;27;20082;-67
2023/09/25 11:44:36;;;;;;;5.15;1.63;;;;;;;;;;5066935;28;20166;-67
2023/09/25 11:47:02;;;;;;;4.15;1.50;;;;;;;;;;5065687;27;20043;-67
2023/09/25 11:49:28;;;;;;;6.13;2.00;;;;;;;;;;5066487;28;20059;-67
2023/09/25 11:51:54;;;;;;;3.92;1.70;;;;;;;;;;5066312;28;20048;-67
2023/09/25 11:54:20;;;;;;;3.90;1.63;;;;;;;;;;5066795;28;20917;-67
2023/09/25 11:56:46;;;;;;;5.15;1.50;;;;;;;;;;5065622;28;20023;-67
2023/09/25 11:59:15;;;;;;;5.38;1.67;;;;;;;;;;5066659;28;20032;-67
2023/09/25 12:01:41;;;;;;;3.92;1.58;;;;;;;;;;5066316;28;20040;-67
2023/09/25 12:04:07;;;;;;;5.95;1.90;;;;;;;;;;5066336;28;20028;-67
2023/09/25 12:06:34;;;;;;;4.80;2.15;;;;;;;;;;5047041;28;20039;-67
2023/09/25 12:09:11;;;;;;;4.70;2.08;;;;;;;;;;5066826;28;20028;-67
2023/09/25 12:11:41;;;;;;;6.25;1.70;;;;;;;;;;5065589;28;20028;-67
2023/09/25 12:14:08;;;;;;;5.88;1.60;;;;;;;;;;5065679;28;20033;-67
2023/09/25 12:16:34;;;;;;;5.40;1.67;;;;;;;;;;5065032;28;20032;-67
2023/09/25 12:19:00;;;;;;;3.83;1.50;;;;;;;;;;5065280;28;20024;-67
2023/09/25 12:21:27;;;;;;;5.95;1.95;;;;;;;;;;5065630;28;20028;-67
2023/09/25 12:23:53;;;;;;;4.88;1.45;;;;;;;;;;5065239;27;20071;-67
2023/09/25 12:26:19;;;;;;;3.45;1.48;;;;;;;;;;5066461;28;20032;-67
2023/09/25 12:28:45;;;;;;;4.72;1.75;;;;;;;;;;5066143;28;20035;-67
2023/09/25 12:31:11;;;;;;;6.03;2.05;;;;;;;;;;5064638;28;20078;-67
2023/09/25 12:33:37;;;;;;;4.63;2.10;;;;;;;;;;5063860;28;20040;-67
2023/09/25 12:36:03;;;;;;;6.38;1.90;;;;;;;;;;5063768;28;20044;-67
2023/09/25 12:38:29;;;;;;;4.75;1.90;;;;;;;;;;5062846;28;20077;-67
2023/09/25 12:40:55;;;;;;;4.07;1.98;;;;;;;;;;5064958;28;20020;-67
2023/09/25 12:43:21;;;;;;;5.18;1.77;;;;;;;;;;5062739;28;20036;-67
2023/09/25 12:45:48;;;;;;;4.88;1.67;;;;;;;;;;5064644;28;20821;-67
2023/09/25 12:48:14;;;;;;;3.50;1.58;;;;;;;;;;5065212;28;20484;-67
2023/09/25 12:50:41;;;;;;;3.67;1.70;;;;;;;;;;5065547;28;20038;-67
2023/09/25 12:53:07;;;;;;;5.90;1.90;;;;;;;;;;5065352;28;20073;-67
2023/09/25 12:55:33;;;;;;;5.68;2.00;;;;;;;;;;5065952;28;21167;-67
2023/09/25 12:57:59;;;;;;;6.13;1.65;;;;;;;;;;5066225;28;20019;-67
2023/09/25 13:00:26;;;;;;;4.55;1.75;;;;;;;;;;5065459;28;20044;-67
2023/09/25 13:02:52;;;;;;;4.75;1.92;;;;;;;;;;5065359;28;20162;-67
2023/09/25 13:05:18;;;;;;;3.53;1.60;;;;;;;;;;5065075;28;20031;-67
2023/09/25 13:07:44;;;;;;;5.07;1.92;;;;;;;;;;5064365;28;20028;-67
2023/09/25 13:10:12;;;;;;;4.63;1.40;;;;;;;;;;5065422;28;20036;-67
2023/09/25 13:12:41;;;;;;;4.95;1.90;;;;;;;;;;5064349;28;21879;-67
2023/09/25 13:15:08;;;;;;;4.57;1.40;;;;;;;;;;5065953;28;20400;-67
2023/09/25 13:17:34;;;;;;;5.28;1.80;;;;;;;;;;5065232;28;20369;-67
2023/09/25 13:20:03;;;;;;;4.53;1.90;;;;;;;;;;5065407;28;20031;-67
2023/09/25 13:22:29;;;;;;;4.88;1.73;;;;;;;;;;5047966;28;20042;-67
2023/09/25 13:24:55;;;;;;;4.80;1.75;;;;;;;;;;5065461;28;20554;-67
2023/09/25 13:27:21;;;;;;;6.32;1.83;;;;;;;;;;5065674;28;20700;-67
2023/09/25 13:29:47;;;;;;;9.73;2.00;;;;;;;;;;5064937;28;20028;-67
2023/09/25 13:32:13;;;;;;;4.15;1.67;;;;;;;;;;5063629;28;20035;-67
2023/09/25 13:34:41;;;;;;;5.93;2.17;;;;;;;;;;5063982;28;21123;-68
2023/09/25 13:37:07;;;;;;;4.68;1.92;;;;;;;;;;5066557;28;20020;-68
2023/09/25 13:39:33;;;;;;;4.40;1.90;;;;;;;;;;5068083;28;20878;-67
2023/09/25 13:41:59;;;;;;;3.45;1.45;;;;;;;;;;5067761;28;20029;-67
2023/09/25 13:44:26;;;;;;;5.85;2.10;;;;;;;;;;5068104;28;20036;-67
2023/09/25 13:46:54;;;;;;;5.00;1.83;;;;;;;;;;5069288;28;20624;-67
2023/09/25 13:49:21;;;;;;;5.25;1.75;;;;;;;;;;5069597;27;20046;-67
2023/09/25 13:51:47;;;;;;;5.75;1.83;;;;;;;;;;5069211;28;20038;-67
2023/09/25 13:54:14;;;;;;;5.70;1.95;;;;;;;;;;5069065;28;20040;-67
2023/09/25 13:56:40;;;;;;;4.10;1.60;;;;;;;;;;5069331;28;20056;-67
2023/09/25 13:59:06;;;;;;;4.32;1.75;;;;;;;;;;5069400;28;21481;-67
2023/09/25 14:01:33;;;;;;;5.90;1.65;;;;;;;;;;5067252;28;20170;-67
2023/09/25 14:03:59;;;;;;;4.50;1.60;;;;;;;;;;5067865;28;20147;-67
2023/09/25 14:06:28;;;;;;;4.88;1.90;;;;;;;;;;5068831;28;20036;-67
2023/09/25 14:08:55;;;;;;;4.55;1.70;;;;;;;;;;5068359;28;20035;-67
2023/09/25 14:11:21;;;;;;;5.80;2.22;;;;;;;;;;5068230;28;20039;-67
2023/09/25 14:13:47;;;;;;;4.93;2.05;;;;;;;;;;5068718;28;20043;-67
2023/09/25 14:16:13;;;;;;;4.72;2.10;;;;;;;;;;5068494;28;20032;-67
2023/09/25 14:18:40;;;;;;;4.43;1.90;;;;;;;;;;5066570;28;20094;-67
2023/09/25 14:21:06;;;;;;;4.40;1.85;;;;;;;;;;5069227;28;20901;-67
2023/09/25 14:23:32;;;;;;;5.60;1.70;;;;;;;;;;5067640;28;20151;-67
2023/09/25 14:25:58;;;;;;;5.40;1.63;;;;;;;;;;5068333;28;20027;-67
2023/09/25 14:28:24;;;;;;;4.95;1.80;;;;;;;;;;5068404;27;20043;-67
2023/09/25 14:30:50;;;;;;;4.40;1.80;;;;;;;;;;5056264;28;20032;-67
2023/09/25 14:33:17;;;;;;;3.83;1.55;;;;;;;;;;5067349;28;20028;-67
2023/09/25 14:35:43;;;;;;;4.35;1.90;;;;;;;;;;5066951;28;21990;-67
2023/09/25 14:38:09;;;;;;;10.63;2.17;;;;;;;;;;5067905;28;20047;-67
2023/09/25 14:40:35;;;;;;;3.55;1.50;;;;;;;;;;5067976;28;20027;-67
2023/09/25 14:43:03;;;;;;;5.95;2.10;;;;;;;;;;5068043;28;20036;-67